Mahopac, NY (10541)

4:52 AM EDT on April 18, 2015 (GMT -0400)
Mahopac | | Change Station
CLOSE
Current Station
Personal Weather Station
Location: Mahopac, NY
Elevation: 823 ft
Nearby Weather Stations
Active Advisory: Fire Weather Warning

Elev 823 ft 41.37 °N, 73.74 °W | Updated 21 minutes ago

Clear
Clear
50.8 °F
Feels Like 50.8 °F
N
0.0
Wind Variable Wind from West
Gusts 1.0 mph

Today
High -- | Low -- °F
--% Chance of Precip.
Yesterday
High -- | Low -- °F
Precip. -- in
6:11 AM 7:38 PM
Waning Crescent, 0% visible
Pressure 29.97 in
Visibility 9.0 miles
Clouds Clear
Dew Point 45 °F
Humidity 80%
Rainfall 0.00 in
Snow Depth Not available.
UV 0.0 out of 12
Pollen 6.10 out of 12
Air Quality Not available.
Flu Activity Widespread
METAR KDXR 180753Z AUTO 23003KT 9SM CLR 04/03 A2997 RMK AO2 SLP149 T00440028 PWINO

More Conditions Fewer Conditions

Pressure 29.97 in
Visibility 9.0 miles
Clouds Clear
Dew Point 45 °F
Humidity 80%
Rainfall 0.00 in
Snow Depth Not available.
UV 0.0 out of 12
Pollen 6.10 out of 12
Air Quality Not available.
Flu Activity Widespread
METAR KDXR 180753Z AUTO 23003KT 9SM CLR 04/03 A2997 RMK AO2 SLP149 T00440028 PWINO

More Conditions Fewer Conditions

10-Day Weather Forecast

Almanac

Astronomy

Apr. 18, 2015 Rise Set
Actual Time
Civil Twilight
Nautical Twilight
Astronomical Twilight
Moon
Length of Visible Light
Length of Day
Tomorrow will be .
, % of the Moon is Illuminated

Today's Extremes

State Highs State Lows

Community

WunderPhotos

Upload Photos

1,814,345 photos uploaded!

WunderBlogs® & News

Nearby

Air Quality

  Air Quality AQ Index Pollutant
Not available.

Snow Depth

Station Depth Elevation

Earthquake Activity

City Distance Mag. Time & Date
Minimum magnitude displayed is 2.5.

Coastal Water Temperatures

Place Temperature

Stations

Nearby Weather Stations

Station Location Temp. Windchill Dew Point Humidity Wind Precip. Elev Updated Type
                   
Fire Weather Warning
Statement as of 3:49 AM EDT on April 18, 2015

... Red flag warning in effect from noon today to 8 PM EDT this
evening for the tri-state area...

The National Weather Service in New York has issued a red flag
warning for the tri-state area... which is in effect from noon
today to 8 PM EDT this evening. The Fire Weather Watch is no
longer in effect.

* Affected area... northeast NJ... NYC Metro... Long Island...
southern CT... and lower Hudson Valley.

* Winds... sustained winds 15 to 20 mph with gusts 25 to 30 mph.

* Relative humidity... 20 to 30 percent.

* Timing... 12 PM to 8 PM today.

* Impacts... rapid fire spread if ignition occurs. A wind shift is
expected by this evening that may create additional hazards for
any ongoing fires.

Precautionary/preparedness actions...

A red flag warning means that critical fire weather conditions
are expected or occurring. A combination of strong winds... low
relative humidity... and dry fuels will create a significantly
elevated fire growth potential.